METAR Data
IDs: Format: Raw Decoded Include TAF

Data at: 1953 UTC 31 Jan 2023

Region: TOP
KATL 311852Z 26010G18KT 10SM OVC014 19/16 A3013 RMK AO2 SLP199 BINOVC T01890156

KBOS 311854Z 35012KT 10SM FEW037 BKN049 02/M07 A3017 RMK AO2 SLP216 T00171072

KBWI 311854Z VRB04KT 7SM -RA SCT021 BKN034 OVC050 04/00 A3021 RMK AO2 RAE1756B53 SLP229 P0000 T00390000

KCLE 311851Z 00000KT 10SM BKN028 M06/M13 A3028 RMK AO2 SLP282 T10561133

KCLT 311852Z VRB04KT 9SM OVC005 14/12 A3010 RMK SLP189 T01390122

KCVG 311852Z 35005KT 10SM FEW019 BKN033 OVC042 M03/M08 A3027 RMK AO2 SLP259 T10331078

KDCA 311941Z 03008KT 7SM BKN013 BKN020 OVC044 04/02 A3021 RMK AO2 RAE36 P0002 T00390017

KDEN 311853Z 00000KT 10SM FEW200 M09/M14 A3005 RMK AO2 SLP245 T10941144

KDFW 311938Z 34013KT 2SM -FZDZ OVC011 M03/M05 A3035 RMK AO2 FZDZB09PLB09E35 P0000 I1001 T10331050

KDTW 311853Z 31006KT 10SM SCT120 SCT230 M07/M16 A3033 RMK AO2 SLP284 T10721161

KEWR 311936Z 28007KT 10SM FEW025 SCT046 BKN070 BKN130 04/M06 A3020 RMK AO2 SNB09E36 P0000 T00391056

KFLL 311853Z 13011KT 10SM SCT035 27/20 A3015 RMK AO2 SLP209 T02720200

KIAD 311926Z 32005KT 3SM BR BKN009 BKN019 OVC033 03/01 A3020 RMK AO2 RAE15 P0000 T00280011

KIAH 311853Z 35011KT 7SM OVC007 06/05 A3021 RMK AO2 PRESFR SLP230 T00610050

KJFK 311939Z 01009KT 10SM FEW028 SCT041 BKN060 03/M04 A3020 RMK AO2 SNE38 P0000 T00331039

KLAS 311856Z 06014KT 10SM CLR 06/M16 A3027 RMK AO2 SLP258 T00561156

KLAX 311853Z 13003KT 10SM FEW160 16/02 A3012 RMK AO2 SLP198 T01560017 $

KLGA 311855Z 33007KT 9SM FEW025 SCT042 BKN065 BKN130 04/M06 A3018 RMK AO2 SNE55 P0000 T00391056 $

KMCO 311853Z 17003KT 10SM SCT043 SCT060 27/17 A3014 RMK AO2 SLP206 T02720172

KMDW 311853Z 29009KT 10SM FEW130 FEW150 BKN250 M11/M21 A3039 RMK AO2 SLP315 T11111206

KMEM 311944Z COR 02009KT 2 1/2SM -FZRA BR OVC004 M03/M03 A3025 RMK AO2 FZRAB43 P0000 I1000 T10281033

KMIA 311853Z 13009G17KT 10SM SCT031 BKN044 28/19 A3015 RMK AO2 SLP211 T02780194 $

KMSP 311853Z 22009KT 10SM BKN046 M15/M22 A3024 RMK AO2 SLP266 T11501222

KORD 311851Z 28010KT 10SM SCT110 BKN250 M12/M21 A3038 RMK AO2 SLP304 T11171211

KPDX 311853Z 29004KT 10SM SCT170 BKN240 02/M06 A3030 RMK AO2 SLP261 T00171056

KPHL 311927Z 36007KT 7SM -RASN BKN023 OVC055 03/M01 A3020 RMK AO2 SNB27 P0000 T00331006 $

KPHX 311851Z 31004KT 10SM FEW100 13/05 A3004 RMK AO2 SLP167 T01330050

KPIT 311934Z 33003KT 10SM SCT021 BKN031 BKN220 M05/M11 A3021 RMK AO2 T10501106

KSAN 311851Z 27006KT 10SM FEW020 FEW070 SCT200 15/07 A3011 RMK AO2 SLP196 T01500067 $

KSEA 311853Z 00000KT 10SM BKN110 BKN150 02/M03 A3025 RMK AO2 SLP253 T00221028

KSFO 311856Z 11006KT 10SM FEW200 12/M06 A3023 RMK AO2 SLP237 T01171061

KSLC 311854Z 00000KT 10SM FEW040 M07/M14 A3040 RMK AO2 SLP343 T10671144

KSTL 311851Z 29005KT 10SM FEW150 SCT200 BKN250 M07/M16 A3041 RMK AO2 SLP317 T10721161 $

KTPA 311853Z 22006KT 10SM SCT050 26/19 A3017 RMK AO2 SLP214 T02610189